KCEU

Oconee County Regional Airport

Clemson, South Carolina, USA
METAR KCEU 160654Z AUTO 26010KT 10SM CLR 01/M02 A3001 RMK AO2 SLP166 T00061017
Observed Flight Rules
Nov-16 @ 06:54 UTC (46 minutes ago) Visual Flight Rules
Wind Visibility Clouds
260° at 10 knots 10 miles
  • Clear skies
Temperatures Readings
Current 1°C / 34°F
Dewpoint -2°C / 28°F
Humidity 81%
Altimeter 30.01" Hg
Pressure 1016.6 hPa
Elevation 268
METAR KCEU 160654Z AUTO 26010KT 10SM CLR 01/M02 A3001 RMK AO2 SLP166 T00061017
Observed Flight Rules
Nov-16 @ 06:54 UTC
(46 minutes ago)
VFR
Wind Visibility
260° at 10 knots 10 miles
Clouds
  • Clear skies
Temperature Dewpoint
1°C / 34°F -2°C / 28°F
Humidity Altimeter Pressure
81% 30.01" Hg 1016.6 hPa